Seo Young — D7LH — position and weather

sailwx.info

Track history (hours):
 
Tides and Currents Weather Stations Pressure Air Temp Water Temp Dewpoint Dewpoint Depression Visibility Wind Speed Wind Dir Waves Ship Positions

Seo Young

Last reported at 2016-Jul-24 21:20 UTC. Time now 2016-Jul-24 22:23 UTC.
Position N 22°49' E 116°54'.

Length 121 m; draft 6.7 m.

Type: Tanker. MMSI: 440036000.

Date/timePositionNaut miles runAvg speedWind from/ knotsBaromVisibWave heightAir tempDewpointWater temp
2016-Jul-24 21:20N 22°49' E 116°54'1513.8
2016-Jul-24 20:17N 22°42' E 116°40'16311.9
2016-Jul-24 06:33N 22°10' E 113°47'1212.0
2016-Jul-24 05:33N 22°22' E 113°47'2311.2
2016-Jul-24 03:32N 22°43' E 113°40'10 9.8
2016-Jul-24 02:33N 22°51' E 113°34'7 0.3
2016-Jul-23 02:09N 22°58' E 113°33'3 4.8
2016-Jul-23 01:33N 22°55' E 113°34'9 9.5
2016-Jul-23 00:33N 22°47' E 113°38'2310.8
2016-Jul-22 22:26N 22°25' E 113°46'1010.9
2016-Jul-22 21:33N 22°16' E 113°48'8 8.4
2016-Jul-22 20:34N 22°08' E 113°47'0 0.1
2016-Jul-22 19:13N 22°07' E 113°47'0 0.0
2016-Jul-22 18:31N 22°07' E 113°47'0 0.1
2016-Jul-22 17:31N 22°08' E 113°47'0 0.0
2016-Jul-22 16:13N 22°08' E 113°47'0 0.0
2016-Jul-22 15:31N 22°08' E 113°47'0 0.1
2016-Jul-22 14:31N 22°08' E 113°47'0 0.1
2016-Jul-22 13:31N 22°07' E 113°47'0 0.1
2016-Jul-22 12:31N 22°08' E 113°47'0 0.1
2016-Jul-22 11:25N 22°07' E 113°47'0 0.0
2016-Jul-22 10:31N 22°07' E 113°47'0 0.0
2016-Jul-22 09:31N 22°07' E 113°47'0 0.0
2016-Jul-22 08:25N 22°07' E 113°47'0 0.0
2016-Jul-22 07:31N 22°07' E 113°47'1 1.1
2016-Jul-22 06:33N 22°07' E 113°48'  
2016-Jul-17 23:06N 01°16' E 104°10'813.7
2016-Jul-17 22:32N 01°15' E 104°03'1414.3
2016-Jul-17 21:33N 01°10' E 103°50'86 4.7
2016-Jul-17 03:14N 01°46' E 102°31'913.3
2016-Jul-17 02:33N 01°50' E 102°23'  
Track history (hours):
 
Tides and Currents Weather Stations Pressure Air Temp Water Temp Dewpoint Dewpoint Depression Visibility Wind Speed Wind Dir Waves Ship Positions

Seo Young

Last reported at 2016-Jul-24 21:20 UTC. Time now 2016-Jul-24 22:23 UTC.
Position N 22°49' E 116°54'.

Length 121 m; draft 6.7 m.

Type: Tanker. MMSI: 440036000.

Date/timePositionNaut miles runAvg speedWind from/ knotsBaromVisibWave heightAir tempDewpointWater temp
2016-Jul-24 21:20N 22°49' E 116°54'1513.8
2016-Jul-24 20:17N 22°42' E 116°40'16311.9
2016-Jul-24 06:33N 22°10' E 113°47'1212.0
2016-Jul-24 05:33N 22°22' E 113°47'2311.2
2016-Jul-24 03:32N 22°43' E 113°40'10 9.8
2016-Jul-24 02:33N 22°51' E 113°34'7 0.3
2016-Jul-23 02:09N 22°58' E 113°33'3 4.8
2016-Jul-23 01:33N 22°55' E 113°34'9 9.5
2016-Jul-23 00:33N 22°47' E 113°38'2310.8
2016-Jul-22 22:26N 22°25' E 113°46'1010.9
2016-Jul-22 21:33N 22°16' E 113°48'8 8.4
2016-Jul-22 20:34N 22°08' E 113°47'0 0.1
2016-Jul-22 19:13N 22°07' E 113°47'0 0.0
2016-Jul-22 18:31N 22°07' E 113°47'0 0.1
2016-Jul-22 17:31N 22°08' E 113°47'0 0.0
2016-Jul-22 16:13N 22°08' E 113°47'0 0.0
2016-Jul-22 15:31N 22°08' E 113°47'0 0.1
2016-Jul-22 14:31N 22°08' E 113°47'0 0.1
2016-Jul-22 13:31N 22°07' E 113°47'0 0.1
2016-Jul-22 12:31N 22°08' E 113°47'0 0.1
2016-Jul-22 11:25N 22°07' E 113°47'0 0.0
2016-Jul-22 10:31N 22°07' E 113°47'0 0.0
2016-Jul-22 09:31N 22°07' E 113°47'0 0.0
2016-Jul-22 08:25N 22°07' E 113°47'0 0.0
2016-Jul-22 07:31N 22°07' E 113°47'1 1.1
2016-Jul-22 06:33N 22°07' E 113°48'  
2016-Jul-17 23:06N 01°16' E 104°10'813.7
2016-Jul-17 22:32N 01°15' E 104°03'1414.3
2016-Jul-17 21:33N 01°10' E 103°50'86 4.7
2016-Jul-17 03:14N 01°46' E 102°31'913.3
2016-Jul-17 02:33N 01°50' E 102°23'  

Dump ship's entire track history